Time;durP1;ratioP1;P1;durP2;ratioP2;P2;SDS_P1;SDS_P2;PMS_P1;PMS_P2;Temp;Humidity;BMP_temperature;BMP_pressure;BME280_temperature;BME280_humidity;BME280_pressure;Samples;Min_cycle;Max_cycle;Signal;HPM_P1;HPM_P2
2022/06/04 00:02:25;;;;;;;42.20;6.17;;;;;;;13.94;64.87;99119.23;2207861;81;21008;-79
2022/06/04 00:05:25;;;;;;;7.22;4.40;;;;;;;13.86;65.12;99106.50;2207862;81;21265;-80
2022/06/04 00:08:27;;;;;;;6.25;4.33;;;;;;;13.74;65.11;99096.84;2207787;81;20988;-79
2022/06/04 00:17:51;;;;;;;4.87;4.40;;;;;;;13.55;65.61;99089.78;2207781;81;21327;-80
2022/06/04 00:20:52;;;;;;;4.80;4.37;;;;;;;13.53;65.70;99092.83;2207816;81;20940;-80
2022/06/04 00:23:52;;;;;;;5.62;4.37;;;;;;;13.49;65.94;99088.45;2208032;81;20952;-79
2022/06/04 00:26:53;;;;;;;4.80;4.30;;;;;;;13.46;66.02;99091.93;2208017;81;21336;-79
2022/06/04 00:29:53;;;;;;;4.90;4.40;;;;;;;13.41;66.21;99086.23;2207911;81;20972;-79
2022/06/04 00:32:53;;;;;;;4.60;4.20;;;;;;;13.38;66.45;99086.66;2207631;81;21165;-80
2022/06/04 00:35:54;;;;;;;6.67;4.25;;;;;;;13.36;66.64;99083.58;2207621;81;21024;-80
2022/06/04 00:38:54;;;;;;;21.05;5.45;;;;;;;13.32;66.70;99080.51;2206075;81;20999;-80
2022/06/04 00:41:55;;;;;;;5.42;4.30;;;;;;;13.25;67.05;99079.60;2205883;81;20963;-79
2022/06/04 00:44:55;;;;;;;5.40;4.90;;;;;;;13.23;67.22;99075.22;2206324;81;21011;-79
2022/06/04 00:47:55;;;;;;;9.65;4.70;;;;;;;13.19;67.40;99073.45;2206331;81;21016;-80
2022/06/04 00:50:56;;;;;;;6.85;4.33;;;;;;;13.18;67.50;99071.27;2206374;81;20952;-80
2022/06/04 00:53:56;;;;;;;13.58;5.25;;;;;;;13.16;67.76;99062.48;2207847;81;20932;-80
2022/06/04 00:56:57;;;;;;;6.35;4.83;;;;;;;13.15;67.99;99065.98;2208087;81;20936;-80
2022/06/04 00:59:57;;;;;;;6.42;4.80;;;;;;;13.13;68.34;99061.16;2206727;81;21007;-80
2022/06/04 01:02:57;;;;;;;6.33;4.92;;;;;;;13.14;68.37;99062.04;2206677;81;21027;-79
2022/06/04 01:05:58;;;;;;;6.20;5.35;;;;;;;13.15;68.64;99058.55;2207989;81;20932;-79
2022/06/04 01:08:58;;;;;;;13.30;5.67;;;;;;;13.19;68.96;99053.36;2207360;81;20947;-79
2022/06/04 01:12:11;;;;;;;5.53;4.97;;;;;;;13.25;68.98;99048.58;2207461;81;21008;-79
2022/06/04 01:15:11;;;;;;;6.05;4.95;;;;;;;13.26;68.94;99044.66;2208267;81;21293;-80
2022/06/04 01:18:11;;;;;;;6.67;5.25;;;;;;;13.23;68.93;99039.83;2207899;81;20991;-80
2022/06/04 01:21:12;;;;;;;6.67;5.40;;;;;;;13.17;69.21;99027.58;2206423;81;21533;-80
2022/06/04 01:24:13;;;;;;;11.68;5.60;;;;;;;13.18;69.53;99028.45;2206170;81;20932;-80
2022/06/04 01:27:13;;;;;;;8.78;4.75;;;;;;;13.23;69.40;99026.30;2206093;81;20992;-80
2022/06/04 01:30:13;;;;;;;8.70;5.53;;;;;;;13.28;69.20;99018.45;2206201;81;20996;-81
2022/06/04 01:33:14;;;;;;;7.10;5.40;;;;;;;13.27;69.12;99008.39;2206110;81;20968;-80
2022/06/04 01:36:14;;;;;;;7.45;4.92;;;;;;;13.30;69.18;99009.72;2207778;81;20901;-80
2022/06/04 01:39:14;;;;;;;9.83;5.20;;;;;;;13.33;69.08;99005.80;2207729;81;20933;-80
2022/06/04 01:42:15;;;;;;;5.92;5.33;;;;;;;13.35;69.15;99000.13;2207764;81;20936;-80
2022/06/04 01:45:15;;;;;;;50.75;7.30;;;;;;;13.33;69.29;99004.48;2207961;81;20972;-80
2022/06/04 01:48:15;;;;;;;10.10;5.53;;;;;;;13.31;69.28;99004.91;2207781;81;20968;-79
2022/06/04 01:51:16;;;;;;;49.10;7.55;;;;;;;13.32;69.44;99007.98;2207403;81;20953;-79
2022/06/04 01:54:16;;;;;;;6.50;4.80;;;;;;;13.33;69.56;99007.11;2207774;81;20984;-79
2022/06/04 01:57:17;;;;;;;9.03;4.67;;;;;;;13.37;69.55;98997.07;2207839;81;20897;-80
2022/06/04 02:00:17;;;;;;;12.85;5.58;;;;;;;13.37;69.53;98995.76;2207801;81;21089;-79
2022/06/04 02:03:17;;;;;;;8.13;5.05;;;;;;;13.48;70.79;98990.98;2207754;80;20996;-79
2022/06/04 02:06:19;;;;;;;5.22;4.72;;;;;;;13.85;71.10;98988.86;2208094;81;20929;-79
2022/06/04 02:09:18;;;;;;;6.92;4.87;;;;;;;14.29;70.86;98988.02;2208211;81;20976;-78
2022/06/04 02:12:19;;;;;;;11.40;4.92;;;;;;;14.72;69.80;98987.54;2207811;81;21351;-78
2022/06/04 02:15:19;;;;;;;10.35;5.25;;;;;;;15.06;69.08;98992.28;2207907;81;20921;-78
2022/06/04 02:18:20;;;;;;;16.77;6.20;;;;;;;15.36;68.21;98991.27;2207917;81;20970;-78
2022/06/04 02:21:20;;;;;;;7.58;4.78;;;;;;;15.62;67.45;98997.77;2208165;81;20903;-79
2022/06/04 02:24:20;;;;;;;5.33;4.47;;;;;;;15.86;66.81;98996.30;2208330;81;20963;-79
2022/06/04 02:27:21;;;;;;;5.65;4.60;;;;;;;15.91;66.18;98994.50;2208375;81;21363;-80
2022/06/04 02:30:21;;;;;;;11.48;5.67;;;;;;;15.98;65.93;98986.12;2208555;81;20925;-79
2022/06/04 02:33:22;;;;;;;8.63;5.08;;;;;;;16.21;65.80;98972.77;2207967;81;20976;-81
2022/06/04 02:36:22;;;;;;;7.03;5.17;;;;;;;16.89;68.25;98965.98;2208131;81;20960;-81
2022/06/04 02:39:22;;;;;;;8.33;5.50;;;;;;;18.29;66.06;98965.36;2207947;81;20956;-81
2022/06/04 02:42:23;;;;;;;7.30;5.20;;;;;;;19.24;63.48;98959.18;2208258;81;20897;-81
2022/06/04 02:45:24;;;;;;;7.30;5.10;;;;;;;19.94;61.23;98962.95;2207881;81;20956;-81
2022/06/04 02:48:24;;;;;;;15.72;5.60;;;;;;;20.36;59.49;98966.77;2208076;81;20897;-81
2022/06/04 02:51:25;;;;;;;8.95;4.50;;;;;;;20.66;57.79;98969.97;2208052;81;20901;-81
2022/06/04 02:54:24;;;;;;;8.50;4.42;;;;;;;20.93;56.68;98968.37;2208504;81;21055;-81
2022/06/04 02:57:25;;;;;;;12.58;5.00;;;;;;;21.13;55.51;98964.28;2208159;81;21268;-82
2022/06/04 03:00:25;;;;;;;6.35;5.00;;;;;;;21.27;54.64;98963.45;2210023;80;20945;-82
2022/06/04 03:03:26;;;;;;;7.12;5.00;;;;;;;21.42;54.04;98960.34;2213461;80;21155;-82
2022/06/04 03:06:26;;;;;;;12.53;4.90;;;;;;;21.48;53.45;98955.30;2213945;80;20932;-82
2022/06/04 03:09:27;;;;;;;7.12;5.05;;;;;;;21.57;53.07;98953.23;2213825;80;21283;-81
2022/06/04 03:12:27;;;;;;;8.55;4.85;;;;;;;21.61;52.14;98952.22;2213772;80;20999;-81
2022/06/04 03:15:27;;;;;;;15.83;4.95;;;;;;;21.53;51.62;98956.90;2214108;80;20964;-81
2022/06/04 03:18:28;;;;;;;23.45;5.85;;;;;;;21.08;50.91;98954.25;2213895;80;21332;-82
2022/06/04 03:21:28;;;;;;;12.35;4.78;;;;;;;20.52;51.88;98955.33;2213902;80;20979;-81
2022/06/04 03:24:28;;;;;;;8.83;4.62;;;;;;;20.27;52.84;98953.28;2213646;80;20964;-83
2022/06/04 03:27:29;;;;;;;8.03;4.72;;;;;;;20.25;53.46;98946.28;2213235;80;21330;-83
2022/06/04 03:30:29;;;;;;;11.93;4.92;;;;;;;20.18;52.79;98936.75;2213215;80;20991;-83
2022/06/04 03:33:30;;;;;;;20.45;5.30;;;;;;;19.99;54.32;98938.98;2212768;80;21027;-81
2022/06/04 03:36:30;;;;;;;5.80;4.60;;;;;;;20.18;53.88;98942.92;2213010;80;21299;-83
2022/06/04 03:39:30;;;;;;;8.85;5.08;;;;;;;20.27;53.66;98944.02;2213734;80;20932;-81
2022/06/04 03:42:31;;;;;;;7.42;4.37;;;;;;;20.33;53.52;98939.88;2213476;80;20928;-82
2022/06/04 03:45:31;;;;;;;83.12;9.03;;;;;;;20.41;53.48;98934.41;2213646;80;20901;-82
2022/06/04 03:48:34;;;;;;;21.85;7.20;;;;;;;20.33;53.19;98931.92;2213664;80;20948;-81
2022/06/04 03:51:32;;;;;;;129.95;14.13;;;;;;;19.84;53.36;98933.58;2212231;80;21319;-82
2022/06/04 03:57:52;;;;;;;15.23;5.87;;;;;;;20.17;54.51;98933.68;2212351;80;22037;-80
2022/06/04 04:00:52;;;;;;;21.05;6.47;;;;;;;19.90;54.27;98925.94;2213282;80;20948;-80
2022/06/04 04:03:52;;;;;;;39.63;8.58;;;;;;;20.05;54.81;98924.27;2213591;80;20983;-80
2022/06/04 04:06:53;;;;;;;13.60;5.75;;;;;;;20.31;54.65;98923.59;2213136;80;21295;-79
2022/06/04 04:09:53;;;;;;;9.98;5.28;;;;;;;20.53;54.49;98917.30;2213147;80;21398;-80
2022/06/04 04:12:54;;;;;;;364.93;28.40;;;;;;;20.67;54.39;98917.79;2213323;80;20971;-80
2022/06/04 04:15:56;;;;;;;27.40;7.10;;;;;;;20.72;54.61;98921.64;2211831;80;20928;-80
2022/06/04 04:18:54;;;;;;;67.20;9.30;;;;;;;20.40;54.91;98910.59;2212335;80;20960;-79
2022/06/04 04:21:55;;;;;;;46.83;9.30;;;;;;;20.55;55.09;98912.82;2212402;80;21355;-79
2022/06/04 04:24:56;;;;;;;34.90;8.03;;;;;;;20.71;54.64;98910.62;2212032;80;20960;-78
2022/06/04 04:27:56;;;;;;;20.97;6.55;;;;;;;20.79;54.33;98908.62;2211997;80;20959;-80
2022/06/04 04:30:56;;;;;;;15.08;5.40;;;;;;;20.83;54.13;98910.30;2211491;80;21434;-80
2022/06/04 04:33:56;;;;;;;7.30;5.30;;;;;;;20.73;54.24;98905.69;2210864;80;21039;-83
2022/06/04 04:36:57;;;;;;;15.20;6.42;;;;;;;20.64;54.29;98911.25;2211194;80;21031;-82
2022/06/04 04:39:57;;;;;;;15.98;6.08;;;;;;;20.32;54.56;98906.33;2211821;80;20901;-80
2022/06/04 04:42:58;;;;;;;16.10;6.22;;;;;;;20.33;55.26;98911.17;2210477;80;20962;-79
2022/06/04 04:45:58;;;;;;;10.72;5.97;;;;;;;20.48;55.40;98919.20;2211169;80;20971;-79
2022/06/04 04:48:58;;;;;;;14.05;6.05;;;;;;;20.65;55.09;98915.64;2211614;80;21304;-79
2022/06/04 04:51:59;;;;;;;9.58;6.45;;;;;;;20.77;54.85;98919.27;2211777;80;20991;-79
2022/06/04 04:55:01;;;;;;;10.38;5.83;;;;;;;20.20;54.06;98933.61;2211113;80;21047;-82
2022/06/04 04:58:02;;;;;;;7.97;5.62;;;;;;;19.55;55.12;98938.23;2211026;80;21486;-82
2022/06/04 05:01:03;;;;;;;12.85;5.90;;;;;;;19.09;56.45;98961.70;2208834;80;21008;-81
2022/06/04 05:04:02;;;;;;;6.53;5.58;;;;;;;18.64;57.42;98985.04;2204887;81;21087;-83
2022/06/04 05:07:03;;;;;;;7.30;6.60;;;;;;;18.24;58.79;99001.56;2205193;81;21450;-80
2022/06/04 05:10:03;;;;;;;21.12;7.47;;;;;;;17.91;59.03;99002.06;2204350;81;21003;-80
2022/06/04 05:13:04;;;;;;;8.50;6.33;;;;;;;17.72;59.51;99001.02;2205165;81;21261;-80
2022/06/04 05:16:04;;;;;;;8.10;6.53;;;;;;;17.59;61.39;98994.13;2205915;81;20988;-82
2022/06/04 05:19:05;;;;;;;10.32;6.30;;;;;;;17.37;62.32;98976.84;2205868;81;21343;-81
2022/06/04 05:22:05;;;;;;;7.47;6.17;;;;;;;17.20;62.59;98965.16;2205674;81;20983;-79
2022/06/04 05:25:05;;;;;;;12.00;7.00;;;;;;;17.10;62.83;98977.59;2205472;81;21027;-80
2022/06/04 05:28:06;;;;;;;13.03;7.45;;;;;;;17.02;63.05;98975.94;2205290;81;20971;-80
2022/06/04 05:31:06;;;;;;;12.23;6.70;;;;;;;17.01;63.56;98980.34;2205701;81;21024;-80
2022/06/04 05:34:06;;;;;;;9.73;6.67;;;;;;;17.02;63.33;98982.09;2206338;81;21032;-80
2022/06/04 05:37:07;;;;;;;8.20;7.30;;;;;;;17.02;63.83;98982.09;2205612;81;21320;-79
2022/06/04 05:40:07;;;;;;;22.82;7.97;;;;;;;17.01;64.65;98990.02;2206221;81;20965;-81
2022/06/04 05:43:08;;;;;;;8.28;6.72;;;;;;;16.98;65.66;98998.84;2207776;81;20980;-82
2022/06/04 05:46:08;;;;;;;14.45;7.85;;;;;;;16.86;66.04;98997.66;2207235;81;20960;-82
2022/06/04 05:49:10;;;;;;;17.42;8.30;;;;;;;16.73;67.87;99028.55;2207614;81;21015;-82
2022/06/04 05:52:09;;;;;;;12.78;8.35;;;;;;;16.51;68.98;99043.66;2206852;81;21383;-83
2022/06/04 05:55:09;;;;;;;15.38;9.30;;;;;;;16.30;69.00;99056.09;2204920;81;21010;-83
2022/06/04 05:58:10;;;;;;;12.03;9.33;;;;;;;16.24;69.89;99075.02;2205417;81;20944;-80
2022/06/04 06:01:10;;;;;;;13.60;9.48;;;;;;;16.20;70.67;99072.41;2208065;80;21043;-81
2022/06/04 06:04:11;;;;;;;13.30;9.15;;;;;;;16.81;71.13;99050.44;2211292;80;21079;-82
2022/06/04 06:07:11;;;;;;;11.83;9.85;;;;;;;16.78;69.92;99057.05;2211415;80;20959;-81
2022/06/04 06:10:11;;;;;;;15.55;10.13;;;;;;;16.58;70.37;99054.14;2212674;80;20952;-81
2022/06/04 06:13:12;;;;;;;12.70;10.18;;;;;;;16.35;71.53;99034.10;2213425;80;20956;-80
2022/06/04 06:16:12;;;;;;;13.20;10.30;;;;;;;16.24;71.97;99035.50;2213195;80;20949;-81
2022/06/04 06:19:13;;;;;;;15.43;10.48;;;;;;;16.16;73.01;99029.87;2211840;80;20948;-81
2022/06/04 06:22:13;;;;;;;11.55;10.18;;;;;;;16.13;73.86;99037.34;2211228;80;21398;-81
2022/06/04 06:25:16;;;;;;;13.50;10.82;;;;;;;16.06;73.75;99039.59;2211822;80;21015;-81
2022/06/04 06:28:14;;;;;;;12.98;10.85;;;;;;;16.15;75.38;99037.34;2211228;80;21385;-82
2022/06/04 06:31:14;;;;;;;16.02;11.93;;;;;;;16.43;74.34;99032.27;2211439;80;20959;-83
2022/06/04 06:34:15;;;;;;;13.65;11.00;;;;;;;16.38;74.56;99040.66;2211649;80;21015;-83
2022/06/04 06:37:15;;;;;;;11.93;10.82;;;;;;;16.38;74.99;99051.64;2211681;80;21019;-81
2022/06/04 06:40:16;;;;;;;16.32;11.65;;;;;;;16.39;75.31;99068.75;2211367;80;21514;-81
2022/06/04 06:43:16;;;;;;;15.13;12.20;;;;;;;16.34;75.18;99087.67;2211151;80;20984;-80
2022/06/04 06:46:16;;;;;;;18.45;14.40;;;;;;;16.24;75.10;99096.53;2211258;80;20980;-82
2022/06/04 06:49:19;;;;;;;17.02;13.95;;;;;;;16.22;76.17;99104.88;2212093;80;20940;-83
2022/06/04 06:52:19;;;;;;;15.48;13.85;;;;;;;16.19;76.34;99107.53;2212535;80;20999;-80
2022/06/04 06:55:18;;;;;;;22.40;14.30;;;;;;;16.08;76.51;99119.89;2213754;80;20968;-80
2022/06/04 06:58:18;;;;;;;15.13;13.38;;;;;;;15.99;76.87;99119.95;2212784;80;20897;-79
2022/06/04 07:01:21;;;;;;;17.27;13.62;;;;;;;15.99;76.95;99118.63;2211588;80;21458;-83
2022/06/04 07:04:21;;;;;;;15.40;13.60;;;;;;;15.99;77.10;99116.87;2207550;81;21031;-82
2022/06/04 07:07:19;;;;;;;27.15;24.43;;;;;;;15.95;77.29;99112.95;2206972;81;20968;-83
2022/06/04 07:10:20;;;;;;;29.15;26.20;;;;;;;15.90;77.07;99107.27;2209082;81;20987;-83
2022/06/04 07:13:20;;;;;;;20.97;16.82;;;;;;;15.92;77.49;99109.89;2208017;81;21258;-82
2022/06/04 07:16:21;;;;;;;17.70;15.68;;;;;;;15.96;77.69;99094.52;2207190;81;20937;-81
2022/06/04 07:19:21;;;;;;;25.88;18.98;;;;;;;15.98;77.88;99084.84;2208317;81;21406;-81
2022/06/04 07:22:21;;;;;;;16.97;15.03;;;;;;;16.01;78.08;99084.83;2208748;81;20996;-81
2022/06/04 07:25:22;;;;;;;20.17;17.25;;;;;;;16.04;77.69;99071.64;2209039;81;20944;-83
2022/06/04 07:28:22;;;;;;;21.17;16.80;;;;;;;16.05;77.53;99076.02;2207041;81;22003;-83
2022/06/04 07:31:23;;;;;;;18.98;16.50;;;;;;;16.03;78.28;99072.53;2206747;81;20972;-83
2022/06/04 07:34:23;;;;;;;22.13;17.80;;;;;;;15.99;78.06;99064.66;2207601;81;21023;-82
2022/06/04 07:37:23;;;;;;;22.17;19.95;;;;;;;16.00;78.54;99065.09;2207740;81;20940;-82
2022/06/04 07:40:24;;;;;;;21.12;18.37;;;;;;;16.06;79.38;99059.78;2208182;81;21030;-81
2022/06/04 07:43:24;;;;;;;19.40;17.57;;;;;;;16.11;79.02;99052.28;2208107;81;20980;-82
2022/06/04 07:46:25;;;;;;;21.60;18.80;;;;;;;16.13;79.11;99050.52;2206498;81;21192;-82
2022/06/04 07:49:25;;;;;;;23.15;20.62;;;;;;;16.15;79.13;99053.14;2206246;81;21407;-82
2022/06/04 07:52:25;;;;;;;22.22;20.00;;;;;;;16.19;79.86;99052.23;2204870;81;21007;-83
2022/06/04 07:55:26;;;;;;;23.60;21.17;;;;;;;16.21;79.57;99053.09;2205512;81;21186;-83
2022/06/04 07:58:26;;;;;;;24.10;21.55;;;;;;;16.19;79.44;99061.45;2205447;81;20995;-80
2022/06/04 08:01:28;;;;;;;21.90;19.80;;;;;;;16.24;80.21;99066.23;2206554;81;21020;-80
2022/06/04 08:04:27;;;;;;;19.77;17.77;;;;;;;16.27;79.95;99062.27;2208400;81;20996;-81
2022/06/04 08:07:27;;;;;;;20.72;18.67;;;;;;;16.25;79.32;99054.81;2207717;81;20980;-81
2022/06/04 08:10:28;;;;;;;22.37;20.00;;;;;;;16.22;79.26;99057.03;2206500;81;20948;-80
2022/06/04 08:13:28;;;;;;;22.42;20.15;;;;;;;16.23;80.02;99067.12;2206275;81;21513;-79
2022/06/04 08:16:29;;;;;;;21.70;19.70;;;;;;;16.82;80.48;99063.17;2205721;81;20968;-80
2022/06/04 08:19:29;;;;;;;20.82;18.62;;;;;;;16.98;79.65;99062.56;2206214;81;20983;-79
2022/06/04 08:22:31;;;;;;;20.62;18.42;;;;;;;16.83;78.85;99066.23;2206004;81;21051;-79
2022/06/04 08:25:31;;;;;;;19.60;17.73;;;;;;;16.69;78.57;99070.77;2206240;81;20963;-80
2022/06/04 08:28:31;;;;;;;19.73;17.80;;;;;;;16.57;78.73;99070.39;2205820;81;21029;-80
2022/06/04 08:31:32;;;;;;;21.93;19.73;;;;;;;16.44;79.19;99065.64;2206106;81;20992;-81
2022/06/04 08:34:32;;;;;;;25.05;21.97;;;;;;;16.35;79.62;99053.86;2205484;81;21039;-81
2022/06/04 08:37:33;;;;;;;71.80;44.15;;;;;;;16.17;80.52;99051.37;2205618;81;20983;-81
2022/06/04 08:40:33;;;;;;;72.90;49.83;;;;;;;15.97;81.21;99051.95;2205595;81;21365;-79
2022/06/04 08:43:33;;;;;;;58.23;40.03;;;;;;;15.82;82.24;99045.89;2206313;81;20992;-81
2022/06/04 08:46:34;;;;;;;50.33;35.70;;;;;;;15.71;82.49;99046.40;2206810;81;21032;-80
2022/06/04 08:49:34;;;;;;;89.92;51.58;;;;;;;15.67;83.21;99044.67;2206428;81;20964;-80
2022/06/04 08:52:35;;;;;;;56.92;36.30;;;;;;;15.65;84.41;99045.56;2206719;81;21160;-82
2022/06/04 08:58:54;;;;;;;30.40;25.55;;;;;;;15.49;84.03;99055.22;2207007;81;20971;-82
2022/06/04 09:01:55;;;;;;;24.52;22.05;;;;;;;15.46;84.66;99058.73;2208765;80;21051;-81
2022/06/04 09:04:55;;;;;;;21.62;19.60;;;;;;;15.44;85.28;99057.87;2212364;80;21058;-83
2022/06/04 09:07:56;;;;;;;23.15;20.70;;;;;;;15.38;85.12;99056.58;2214206;80;20924;-81
2022/06/04 09:10:57;;;;;;;23.07;20.70;;;;;;;15.36;85.78;99057.47;2214599;80;20924;-82
2022/06/04 09:13:56;;;;;;;21.45;19.60;;;;;;;15.37;85.60;99059.22;2214161;80;20987;-82
2022/06/04 09:16:57;;;;;;;23.62;21.25;;;;;;;15.42;85.96;99064.89;2213814;80;20971;-83
2022/06/04 09:19:57;;;;;;;23.15;20.97;;;;;;;15.49;86.67;99064.42;2215189;80;20971;-83
2022/06/04 09:22:58;;;;;;;24.15;21.75;;;;;;;15.55;86.61;99053.88;2214930;80;20968;-82
2022/06/04 09:25:58;;;;;;;20.90;18.87;;;;;;;15.61;86.29;99057.86;2214450;80;21296;-82
2022/06/04 09:28:58;;;;;;;20.48;18.37;;;;;;;15.66;86.53;99067.92;2214284;80;20901;-82
2022/06/04 09:31:59;;;;;;;20.17;18.17;;;;;;;15.77;86.61;99069.17;2214765;80;20940;-82
2022/06/04 09:34:59;;;;;;;19.35;17.60;;;;;;;15.89;86.31;99072.61;2214132;80;20948;-83
2022/06/04 09:38:00;;;;;;;19.20;17.12;;;;;;;15.90;85.75;99080.94;2215434;80;20935;-83
2022/06/04 09:41:00;;;;;;;17.10;15.58;;;;;;;15.95;85.83;99087.50;2215030;80;20956;-83
2022/06/04 09:44:01;;;;;;;16.55;15.18;;;;;;;16.01;86.36;99092.73;2214618;80;21075;-83
2022/06/04 09:47:01;;;;;;;19.42;17.05;;;;;;;16.02;86.59;99082.62;2213727;80;20975;-83
2022/06/04 09:50:01;;;;;;;16.20;14.70;;;;;;;16.09;86.90;99065.03;2213606;80;20952;-83
2022/06/04 09:53:02;;;;;;;17.37;15.80;;;;;;;16.17;86.19;99058.83;2213827;80;21011;-83
2022/06/04 09:56:02;;;;;;;18.87;16.85;;;;;;;16.28;85.85;99057.42;2213579;80;20972;-83
2022/06/04 09:59:02;;;;;;;17.15;15.65;;;;;;;16.41;85.78;99053.80;2213246;80;21014;-82
2022/06/04 10:02:03;;;;;;;15.38;14.03;;;;;;;16.59;85.42;99047.98;2211582;80;20992;-81
2022/06/04 10:05:03;;;;;;;13.75;12.63;;;;;;;16.89;85.80;99033.22;2206519;81;21442;-80
2022/06/04 10:08:04;;;;;;;13.68;12.58;;;;;;;17.26;84.82;99033.67;2206751;81;20976;-81
2022/06/04 10:11:05;;;;;;;13.83;11.48;;;;;;;17.65;84.47;99040.23;2206143;81;21238;-80
2022/06/04 10:14:04;;;;;;;11.12;10.10;;;;;;;18.12;83.83;99041.35;2207305;81;20956;-79
2022/06/04 10:17:05;;;;;;;11.12;10.13;;;;;;;18.49;82.63;99040.34;2205642;81;20963;-80
2022/06/04 10:20:05;;;;;;;12.85;11.70;;;;;;;18.83;81.71;99038.45;2205153;81;20980;-80
2022/06/04 10:23:06;;;;;;;12.63;11.20;;;;;;;19.16;80.61;99039.63;2205972;81;20952;-82
2022/06/04 10:26:07;;;;;;;13.48;12.33;;;;;;;19.46;80.92;99036.36;2207397;81;20963;-80
2022/06/04 10:29:06;;;;;;;13.98;12.63;;;;;;;19.91;80.35;99028.34;2207164;81;20979;-80
2022/06/04 10:32:07;;;;;;;17.25;15.85;;;;;;;20.18;79.15;99026.86;2207072;81;21006;-80
2022/06/04 10:35:07;;;;;;;18.52;16.77;;;;;;;20.24;77.95;99035.53;2207236;81;21062;-80
2022/06/04 10:38:08;;;;;;;19.20;17.62;;;;;;;20.24;78.56;99035.98;2207244;81;21975;-81
2022/06/04 10:41:08;;;;;;;19.32;17.80;;;;;;;20.27;77.68;99030.16;2206345;81;20964;-79
2022/06/04 10:44:12;;;;;;;18.40;16.82;;;;;;;20.32;77.39;99033.56;2205508;81;21018;-78
2022/06/04 10:47:12;;;;;;;13.62;12.40;;;;;;;20.16;76.74;99040.14;2205544;81;21374;-83
2022/06/04 10:50:12;;;;;;;15.03;13.72;;;;;;;20.01;78.12;99045.34;2207058;81;21000;-78
2022/06/04 10:53:12;;;;;;;14.50;13.35;;;;;;;20.49;77.91;99042.91;2206211;81;20976;-79
2022/06/04 10:56:13;;;;;;;13.65;12.30;;;;;;;20.27;76.88;99038.11;2206403;81;21041;-79
2022/06/04 10:59:13;;;;;;;13.62;12.33;;;;;;;19.97;76.93;99031.75;2205701;81;20960;-79
2022/06/04 11:02:14;;;;;;;14.98;12.00;;;;;;;19.76;77.56;99034.86;2208324;80;21011;-78
2022/06/04 11:05:14;;;;;;;12.37;11.28;;;;;;;19.56;77.79;99042.36;2212964;80;21430;-79
2022/06/04 11:08:15;;;;;;;12.98;11.73;;;;;;;19.41;78.40;99046.17;2210588;80;21023;-77
2022/06/04 11:11:15;;;;;;;13.22;11.73;;;;;;;19.27;78.85;99039.83;2210873;80;21035;-78
2022/06/04 11:14:15;;;;;;;12.60;11.55;;;;;;;19.21;79.71;99053.64;2210265;80;21069;-78
2022/06/04 11:17:16;;;;;;;12.85;11.57;;;;;;;19.12;79.68;99059.11;2210507;80;21339;-78
2022/06/04 11:20:16;;;;;;;14.00;12.90;;;;;;;19.01;80.06;99076.02;2210885;80;20968;-78
2022/06/04 11:23:16;;;;;;;12.30;11.35;;;;;;;18.81;80.20;99079.48;2210991;80;21039;-79
2022/06/04 11:26:17;;;;;;;14.28;12.93;;;;;;;18.52;80.68;99087.87;2210049;80;21866;-79
2022/06/04 11:29:17;;;;;;;16.65;15.30;;;;;;;18.30;81.94;99091.30;2210208;80;20932;-79
2022/06/04 11:32:18;;;;;;;18.73;17.02;;;;;;;18.15;82.61;99091.50;2210878;80;21016;-80
2022/06/04 11:35:18;;;;;;;15.78;14.30;;;;;;;18.03;83.53;99090.36;2210875;80;21490;-79
2022/06/04 11:38:18;;;;;;;15.80;14.45;;;;;;;17.98;83.83;99078.98;2212900;80;20952;-79
2022/06/04 11:41:19;;;;;;;20.88;18.67;;;;;;;17.94;83.93;99083.88;2213275;80;21003;-80
2022/06/04 11:44:20;;;;;;;23.50;21.30;;;;;;;17.91;85.02;99086.13;2212988;80;21011;-79
2022/06/04 11:47:20;;;;;;;25.88;23.07;;;;;;;17.79;84.37;99082.33;2214795;80;20960;-80
2022/06/04 11:50:21;;;;;;;30.35;27.25;;;;;;;17.70;84.98;99087.73;2215191;80;20991;-81
2022/06/04 11:53:22;;;;;;;30.68;27.77;;;;;;;17.64;85.58;99096.56;2215260;80;21059;-80
2022/06/04 11:56:22;;;;;;;33.15;28.45;;;;;;;17.59;86.84;99094.44;2214575;80;21342;-80
2022/06/04 11:59:23;;;;;;;29.02;26.02;;;;;;;17.48;86.49;99097.64;2213428;80;20960;-80
2022/06/04 12:02:25;;;;;;;31.65;28.45;;;;;;;17.37;86.41;99095.13;2213047;80;21062;-81
2022/06/04 12:05:23;;;;;;;29.57;26.55;;;;;;;17.34;87.39;99094.27;2213362;80;20998;-79
2022/06/04 12:08:24;;;;;;;28.40;25.80;;;;;;;17.29;87.64;99100.03;2211959;80;21363;-80
2022/06/04 12:11:24;;;;;;;24.35;22.25;;;;;;;17.20;89.09;99096.61;2212589;80;20995;-82
2022/06/04 12:14:25;;;;;;;23.62;21.42;;;;;;;17.20;89.10;99098.38;2213797;80;21008;-80
2022/06/04 12:17:25;;;;;;;21.90;19.90;;;;;;;17.28;88.21;99090.38;2213649;80;20978;-81
2022/06/04 12:27:03;;;;;;;20.02;18.37;;;;;;;17.42;87.74;99110.91;2211757;80;21362;-80
2022/06/04 12:30:04;;;;;;;20.02;18.10;;;;;;;17.42;87.91;99101.67;2212182;80;21030;-80
2022/06/04 12:33:04;;;;;;;18.80;16.97;;;;;;;17.44;87.55;99095.48;2211503;80;21062;-80
2022/06/04 12:36:05;;;;;;;15.95;14.55;;;;;;;17.52;87.96;99096.72;2210890;80;21414;-80
2022/06/04 12:39:05;;;;;;;16.27;14.87;;;;;;;17.54;87.42;99103.30;2211869;80;21007;-81
2022/06/04 12:42:06;;;;;;;16.73;15.43;;;;;;;17.55;87.46;99106.37;2212331;80;21293;-78
2022/06/04 12:45:06;;;;;;;17.20;15.65;;;;;;;17.52;87.26;99108.59;2213556;80;21307;-83
2022/06/04 12:48:06;;;;;;;17.15;15.65;;;;;;;17.51;87.48;99108.17;2213269;80;20937;-84
2022/06/04 12:51:07;;;;;;;16.50;15.05;;;;;;;17.49;87.36;99109.95;2212704;80;20965;-79
2022/06/04 12:54:08;;;;;;;17.48;15.80;;;;;;;17.54;87.52;99105.49;2213449;80;21019;-79
2022/06/04 12:57:07;;;;;;;15.05;13.70;;;;;;;17.57;87.69;99105.90;2213282;80;21283;-80
2022/06/04 13:00:08;;;;;;;15.13;13.95;;;;;;;17.63;87.77;99104.06;2213345;80;20939;-80
2022/06/04 13:03:08;;;;;;;14.95;13.75;;;;;;;17.68;87.73;99096.98;2213522;80;21023;-79
2022/06/04 13:06:09;;;;;;;14.05;12.93;;;;;;;17.70;87.75;99097.84;2214241;78;21039;-79
2022/06/04 13:09:09;;;;;;;18.12;13.75;;;;;;;17.67;87.45;99105.80;2214823;80;21015;-80
2022/06/04 13:12:09;;;;;;;17.48;14.43;;;;;;;17.64;87.24;99107.57;2215549;80;20948;-82
2022/06/04 13:15:10;;;;;;;15.78;14.58;;;;;;;17.63;87.78;99111.98;2216051;80;20941;-80
2022/06/04 13:18:10;;;;;;;16.80;15.25;;;;;;;17.61;88.05;99115.53;2215857;80;21226;-80
2022/06/04 13:21:11;;;;;;;17.23;15.63;;;;;;;17.59;88.16;99117.31;2215535;80;20986;-80
2022/06/04 13:24:12;;;;;;;16.90;15.50;;;;;;;17.56;88.36;99113.39;2216040;80;20967;-80
2022/06/04 13:27:12;;;;;;;18.42;16.73;;;;;;;17.59;88.17;99106.75;2215841;80;20936;-80
2022/06/04 13:30:12;;;;;;;24.77;22.27;;;;;;;17.62;88.11;99107.59;2215183;80;20945;-80
2022/06/04 13:33:12;;;;;;;23.95;21.87;;;;;;;17.70;88.05;99105.77;2214329;80;20964;-80
2022/06/04 13:36:13;;;;;;;21.82;19.85;;;;;;;17.79;87.47;99103.45;2214641;80;21035;-80
2022/06/04 13:39:13;;;;;;;22.62;20.40;;;;;;;17.90;87.60;99103.30;2216284;80;20968;-81
2022/06/04 13:42:14;;;;;;;17.07;15.48;;;;;;;18.05;87.29;99108.38;2216325;80;20955;-80
2022/06/04 13:45:14;;;;;;;16.52;15.10;;;;;;;18.27;86.47;99101.92;2216084;80;21358;-80
2022/06/04 13:48:14;;;;;;;15.58;14.33;;;;;;;18.51;85.58;99106.40;2215547;80;20924;-80
2022/06/04 13:51:15;;;;;;;18.27;16.75;;;;;;;18.77;85.38;99101.14;2215969;80;20992;-81
2022/06/04 13:54:15;;;;;;;15.83;14.35;;;;;;;18.93;84.88;99099.09;2215249;80;20960;-81
2022/06/04 13:57:16;;;;;;;13.28;12.13;;;;;;;19.05;83.88;99098.88;2216039;80;20955;-81
2022/06/04 14:00:16;;;;;;;14.25;13.05;;;;;;;19.17;82.97;99103.10;2215932;80;20955;-80
2022/06/04 14:03:16;;;;;;;14.20;13.00;;;;;;;19.33;82.99;99102.36;2216073;80;20995;-80
2022/06/04 14:06:17;;;;;;;14.15;13.13;;;;;;;19.51;82.53;99098.02;2215572;80;21094;-80
2022/06/04 14:09:17;;;;;;;14.28;13.08;;;;;;;19.76;81.75;99093.58;2215374;80;20937;-80
2022/06/04 14:12:18;;;;;;;14.75;13.22;;;;;;;19.96;80.68;99088.75;2214698;80;20992;-80
2022/06/04 14:15:18;;;;;;;12.85;11.85;;;;;;;20.18;80.11;99090.02;2215161;80;20964;-80